sensor_id;sensor_type;location;lat;lon;timestamp;pressure;altitude;pressure_sealevel;temperature;humidity
57250;BME280;43102;52.014;-0.680;2023-01-29T00:00:00;102151;;;6.37;78.81
57250;BME280;43102;52.014;-0.680;2023-01-29T00:01:03;102151;;;6.37;78.81
57250;BME280;43102;52.014;-0.680;2023-01-29T00:02:00;102151;;;6.37;78.81
57250;BME280;43102;52.014;-0.680;2023-01-29T00:03:00;102151;;;6.37;78.81
57250;BME280;43102;52.014;-0.680;2023-01-29T00:04:00;102151;;;6.37;78.81
57250;BME280;43102;52.014;-0.680;2023-01-29T00:05:00;102151;;;6.38;78.85
57250;BME280;43102;52.014;-0.680;2023-01-29T00:06:03;102151;;;6.38;78.85
57250;BME280;43102;52.014;-0.680;2023-01-29T00:07:00;102151;;;6.38;78.85
57250;BME280;43102;52.014;-0.680;2023-01-29T00:08:00;102151;;;6.38;78.85
57250;BME280;43102;52.014;-0.680;2023-01-29T00:09:00;102151;;;6.38;78.85
57250;BME280;43102;52.014;-0.680;2023-01-29T00:10:00;102138;;;6.40;78.87
57250;BME280;43102;52.014;-0.680;2023-01-29T00:11:01;102138;;;6.40;78.87
57250;BME280;43102;52.014;-0.680;2023-01-29T00:12:00;102138;;;6.40;78.87
57250;BME280;43102;52.014;-0.680;2023-01-29T00:13:00;102138;;;6.40;78.87
57250;BME280;43102;52.014;-0.680;2023-01-29T00:14:00;102138;;;6.40;78.87
57250;BME280;43102;52.014;-0.680;2023-01-29T00:15:00;102137;;;6.40;78.89
57250;BME280;43102;52.014;-0.680;2023-01-29T00:16:00;102137;;;6.40;78.89
57250;BME280;43102;52.014;-0.680;2023-01-29T00:17:00;102137;;;6.40;78.89
57250;BME280;43102;52.014;-0.680;2023-01-29T00:18:00;102137;;;6.40;78.89
57250;BME280;43102;52.014;-0.680;2023-01-29T00:19:00;102137;;;6.40;78.89
57250;BME280;43102;52.014;-0.680;2023-01-29T00:20:00;102145;;;6.41;78.91
57250;BME280;43102;52.014;-0.680;2023-01-29T00:21:00;102145;;;6.41;78.91
57250;BME280;43102;52.014;-0.680;2023-01-29T00:22:00;102145;;;6.41;78.91
57250;BME280;43102;52.014;-0.680;2023-01-29T00:23:00;102145;;;6.41;78.91
57250;BME280;43102;52.014;-0.680;2023-01-29T00:24:00;102145;;;6.41;78.91
57250;BME280;43102;52.014;-0.680;2023-01-29T00:25:00;102145;;;6.41;78.95
57250;BME280;43102;52.014;-0.680;2023-01-29T00:26:00;102145;;;6.41;78.95
57250;BME280;43102;52.014;-0.680;2023-01-29T00:27:00;102145;;;6.41;78.95
57250;BME280;43102;52.014;-0.680;2023-01-29T00:28:00;102145;;;6.41;78.95
57250;BME280;43102;52.014;-0.680;2023-01-29T00:29:00;102145;;;6.41;78.95
57250;BME280;43102;52.014;-0.680;2023-01-29T00:30:00;102143;;;6.44;78.91
57250;BME280;43102;52.014;-0.680;2023-01-29T00:32:00;102143;;;6.44;78.91
57250;BME280;43102;52.014;-0.680;2023-01-29T00:33:00;102143;;;6.44;78.91
57250;BME280;43102;52.014;-0.680;2023-01-29T00:34:00;102143;;;6.44;78.91
57250;BME280;43102;52.014;-0.680;2023-01-29T00:35:00;102132;;;6.43;78.90
57250;BME280;43102;52.014;-0.680;2023-01-29T00:36:08;102132;;;6.43;78.90
57250;BME280;43102;52.014;-0.680;2023-01-29T00:37:00;102132;;;6.43;78.90
57250;BME280;43102;52.014;-0.680;2023-01-29T00:38:00;102132;;;6.43;78.90
57250;BME280;43102;52.014;-0.680;2023-01-29T00:39:00;102132;;;6.43;78.90
57250;BME280;43102;52.014;-0.680;2023-01-29T00:40:00;102126;;;6.43;78.91
57250;BME280;43102;52.014;-0.680;2023-01-29T00:41:15;102126;;;6.43;78.91
57250;BME280;43102;52.014;-0.680;2023-01-29T00:42:00;102126;;;6.43;78.91
57250;BME280;43102;52.014;-0.680;2023-01-29T00:43:00;102126;;;6.43;78.91
57250;BME280;43102;52.014;-0.680;2023-01-29T00:44:00;102126;;;6.43;78.91
57250;BME280;43102;52.014;-0.680;2023-01-29T00:45:00;102126;;;6.44;78.94
57250;BME280;43102;52.014;-0.680;2023-01-29T00:46:00;102126;;;6.44;78.94
57250;BME280;43102;52.014;-0.680;2023-01-29T00:47:00;102126;;;6.44;78.94
57250;BME280;43102;52.014;-0.680;2023-01-29T00:48:00;102126;;;6.44;78.94
57250;BME280;43102;52.014;-0.680;2023-01-29T00:49:00;102126;;;6.44;78.94
57250;BME280;43102;52.014;-0.680;2023-01-29T00:50:00;102122;;;6.43;78.95
57250;BME280;43102;52.014;-0.680;2023-01-29T00:51:00;102122;;;6.43;78.95
57250;BME280;43102;52.014;-0.680;2023-01-29T00:52:00;102122;;;6.43;78.95
57250;BME280;43102;52.014;-0.680;2023-01-29T00:53:00;102122;;;6.43;78.95
57250;BME280;43102;52.014;-0.680;2023-01-29T00:54:00;102122;;;6.43;78.95
57250;BME280;43102;52.014;-0.680;2023-01-29T00:55:00;102123;;;6.38;79.15
57250;BME280;43102;52.014;-0.680;2023-01-29T00:56:00;102123;;;6.38;79.15
57250;BME280;43102;52.014;-0.680;2023-01-29T00:57:00;102123;;;6.38;79.15
57250;BME280;43102;52.014;-0.680;2023-01-29T00:58:00;102123;;;6.38;79.15
57250;BME280;43102;52.014;-0.680;2023-01-29T00:59:00;102123;;;6.38;79.15
57250;BME280;43102;52.014;-0.680;2023-01-29T01:00:00;102117;;;6.36;79.15
57250;BME280;43102;52.014;-0.680;2023-01-29T01:01:00;102117;;;6.36;79.15
57250;BME280;43102;52.014;-0.680;2023-01-29T01:02:00;102117;;;6.36;79.15
57250;BME280;43102;52.014;-0.680;2023-01-29T01:03:00;102117;;;6.36;79.15
57250;BME280;43102;52.014;-0.680;2023-01-29T01:04:00;102117;;;6.36;79.15
57250;BME280;43102;52.014;-0.680;2023-01-29T01:05:00;102112;;;6.35;79.19
57250;BME280;43102;52.014;-0.680;2023-01-29T01:06:02;102112;;;6.35;79.19
57250;BME280;43102;52.014;-0.680;2023-01-29T01:07:00;102112;;;6.35;79.19
57250;BME280;43102;52.014;-0.680;2023-01-29T01:08:00;102112;;;6.35;79.19
57250;BME280;43102;52.014;-0.680;2023-01-29T01:09:00;102112;;;6.35;79.19
57250;BME280;43102;52.014;-0.680;2023-01-29T01:10:00;102111;;;6.33;79.25
57250;BME280;43102;52.014;-0.680;2023-01-29T01:11:01;102111;;;6.33;79.25
57250;BME280;43102;52.014;-0.680;2023-01-29T01:12:00;102111;;;6.33;79.25
57250;BME280;43102;52.014;-0.680;2023-01-29T01:13:01;102111;;;6.33;79.25
57250;BME280;43102;52.014;-0.680;2023-01-29T01:14:00;102111;;;6.33;79.25
57250;BME280;43102;52.014;-0.680;2023-01-29T01:15:00;102110;;;6.35;79.26
57250;BME280;43102;52.014;-0.680;2023-01-29T01:16:00;102110;;;6.35;79.26
57250;BME280;43102;52.014;-0.680;2023-01-29T01:17:00;102110;;;6.35;79.26
57250;BME280;43102;52.014;-0.680;2023-01-29T01:18:00;102110;;;6.35;79.26
57250;BME280;43102;52.014;-0.680;2023-01-29T01:19:00;102110;;;6.35;79.26
57250;BME280;43102;52.014;-0.680;2023-01-29T01:20:00;102115;;;6.35;79.29
57250;BME280;43102;52.014;-0.680;2023-01-29T01:21:00;102115;;;6.35;79.29
57250;BME280;43102;52.014;-0.680;2023-01-29T01:22:00;102115;;;6.35;79.29
57250;BME280;43102;52.014;-0.680;2023-01-29T01:23:00;102115;;;6.35;79.29
57250;BME280;43102;52.014;-0.680;2023-01-29T01:24:00;102115;;;6.35;79.29
57250;BME280;43102;52.014;-0.680;2023-01-29T01:25:00;102113;;;6.34;79.34
57250;BME280;43102;52.014;-0.680;2023-01-29T01:26:00;102113;;;6.34;79.34
57250;BME280;43102;52.014;-0.680;2023-01-29T01:27:00;102113;;;6.34;79.34
57250;BME280;43102;52.014;-0.680;2023-01-29T01:28:00;102113;;;6.34;79.34
57250;BME280;43102;52.014;-0.680;2023-01-29T01:29:00;102113;;;6.34;79.34
57250;BME280;43102;52.014;-0.680;2023-01-29T01:30:00;102113;;;6.36;79.34
57250;BME280;43102;52.014;-0.680;2023-01-29T01:31:06;102113;;;6.36;79.34
57250;BME280;43102;52.014;-0.680;2023-01-29T01:32:00;102113;;;6.36;79.34
57250;BME280;43102;52.014;-0.680;2023-01-29T01:33:00;102113;;;6.36;79.34
57250;BME280;43102;52.014;-0.680;2023-01-29T01:34:00;102113;;;6.36;79.34
57250;BME280;43102;52.014;-0.680;2023-01-29T01:35:00;102112;;;6.36;79.35
57250;BME280;43102;52.014;-0.680;2023-01-29T01:36:00;102112;;;6.36;79.35
57250;BME280;43102;52.014;-0.680;2023-01-29T01:37:00;102112;;;6.36;79.35
57250;BME280;43102;52.014;-0.680;2023-01-29T01:38:00;102112;;;6.36;79.35
57250;BME280;43102;52.014;-0.680;2023-01-29T01:39:00;102112;;;6.36;79.35
57250;BME280;43102;52.014;-0.680;2023-01-29T01:40:00;102113;;;6.37;79.32
57250;BME280;43102;52.014;-0.680;2023-01-29T01:41:00;102113;;;6.37;79.32
57250;BME280;43102;52.014;-0.680;2023-01-29T01:42:00;102113;;;6.37;79.32
57250;BME280;43102;52.014;-0.680;2023-01-29T01:43:00;102113;;;6.37;79.32
57250;BME280;43102;52.014;-0.680;2023-01-29T01:44:00;102113;;;6.37;79.32
57250;BME280;43102;52.014;-0.680;2023-01-29T01:45:00;102116;;;6.40;79.29
57250;BME280;43102;52.014;-0.680;2023-01-29T01:46:00;102116;;;6.40;79.29
57250;BME280;43102;52.014;-0.680;2023-01-29T01:47:00;102116;;;6.40;79.29
57250;BME280;43102;52.014;-0.680;2023-01-29T01:49:04;102116;;;6.40;79.29
57250;BME280;43102;52.014;-0.680;2023-01-29T01:50:02;102120;;;6.41;79.24
57250;BME280;43102;52.014;-0.680;2023-01-29T01:51:01;102120;;;6.41;79.24
57250;BME280;43102;52.014;-0.680;2023-01-29T01:52:00;102120;;;6.41;79.24
57250;BME280;43102;52.014;-0.680;2023-01-29T01:53:02;102120;;;6.41;79.24
57250;BME280;43102;52.014;-0.680;2023-01-29T01:54:02;102120;;;6.41;79.24
57250;BME280;43102;52.014;-0.680;2023-01-29T01:55:00;102118;;;6.41;79.26
57250;BME280;43102;52.014;-0.680;2023-01-29T01:56:01;102118;;;6.41;79.26
57250;BME280;43102;52.014;-0.680;2023-01-29T01:57:02;102118;;;6.41;79.26
57250;BME280;43102;52.014;-0.680;2023-01-29T01:58:05;102118;;;6.41;79.26
57250;BME280;43102;52.014;-0.680;2023-01-29T01:59:00;102118;;;6.41;79.26
57250;BME280;43102;52.014;-0.680;2023-01-29T02:00:04;102116;;;6.43;79.15
57250;BME280;43102;52.014;-0.680;2023-01-29T02:01:00;102116;;;6.43;79.15
57250;BME280;43102;52.014;-0.680;2023-01-29T02:02:00;102116;;;6.43;79.15
57250;BME280;43102;52.014;-0.680;2023-01-29T02:03:00;102116;;;6.43;79.15
57250;BME280;43102;52.014;-0.680;2023-01-29T02:04:02;102116;;;6.43;79.15
57250;BME280;43102;52.014;-0.680;2023-01-29T02:05:00;102110;;;6.42;79.08
57250;BME280;43102;52.014;-0.680;2023-01-29T02:06:00;102110;;;6.42;79.08
57250;BME280;43102;52.014;-0.680;2023-01-29T02:07:00;102110;;;6.42;79.08
57250;BME280;43102;52.014;-0.680;2023-01-29T02:08:00;102110;;;6.42;79.08
57250;BME280;43102;52.014;-0.680;2023-01-29T02:09:02;102110;;;6.42;79.08
57250;BME280;43102;52.014;-0.680;2023-01-29T02:10:08;102109;;;6.46;78.95
57250;BME280;43102;52.014;-0.680;2023-01-29T02:11:00;102109;;;6.46;78.95
57250;BME280;43102;52.014;-0.680;2023-01-29T02:12:02;102109;;;6.46;78.95
57250;BME280;43102;52.014;-0.680;2023-01-29T02:13:00;102109;;;6.46;78.95
57250;BME280;43102;52.014;-0.680;2023-01-29T02:14:00;102109;;;6.46;78.95
57250;BME280;43102;52.014;-0.680;2023-01-29T02:15:00;102110;;;6.46;78.92
57250;BME280;43102;52.014;-0.680;2023-01-29T02:16:00;102110;;;6.46;78.92
57250;BME280;43102;52.014;-0.680;2023-01-29T02:17:00;102110;;;6.46;78.92
57250;BME280;43102;52.014;-0.680;2023-01-29T02:18:00;102110;;;6.46;78.92
57250;BME280;43102;52.014;-0.680;2023-01-29T02:19:00;102110;;;6.46;78.92
57250;BME280;43102;52.014;-0.680;2023-01-29T02:24:08;102116;;;6.46;78.85
57250;BME280;43102;52.014;-0.680;2023-01-29T02:25:02;102111;;;6.44;78.84
57250;BME280;43102;52.014;-0.680;2023-01-29T02:27:18;102111;;;6.44;78.84
57250;BME280;43102;52.014;-0.680;2023-01-29T02:30:02;102109;;;6.42;78.81
57250;BME280;43102;52.014;-0.680;2023-01-29T02:32:05;102109;;;6.42;78.81
57250;BME280;43102;52.014;-0.680;2023-01-29T02:33:04;102109;;;6.42;78.81
57250;BME280;43102;52.014;-0.680;2023-01-29T02:36:04;102100;;;6.42;78.79
57250;BME280;43102;52.014;-0.680;2023-01-29T02:37:02;102100;;;6.42;78.79
57250;BME280;43102;52.014;-0.680;2023-01-29T02:41:01;102088;;;6.41;78.75
57250;BME280;43102;52.014;-0.680;2023-01-29T02:42:01;102088;;;6.41;78.75
57250;BME280;43102;52.014;-0.680;2023-01-29T02:44:04;102088;;;6.41;78.75
57250;BME280;43102;52.014;-0.680;2023-01-29T02:47:01;102085;;;6.38;78.72
57250;BME280;43102;52.014;-0.680;2023-01-29T02:48:00;102085;;;6.38;78.72
57250;BME280;43102;52.014;-0.680;2023-01-29T02:50:05;102080;;;6.38;78.75
57250;BME280;43102;52.014;-0.680;2023-01-29T02:51:01;102080;;;6.38;78.75
57250;BME280;43102;52.014;-0.680;2023-01-29T02:53:16;102080;;;6.38;78.75
57250;BME280;43102;52.014;-0.680;2023-01-29T02:54:02;102080;;;6.38;78.75
57250;BME280;43102;52.014;-0.680;2023-01-29T02:55:04;102073;;;6.36;78.77
57250;BME280;43102;52.014;-0.680;2023-01-29T02:56:02;102073;;;6.36;78.77
57250;BME280;43102;52.014;-0.680;2023-01-29T02:57:03;102073;;;6.36;78.77
57250;BME280;43102;52.014;-0.680;2023-01-29T02:58:03;102073;;;6.36;78.77
57250;BME280;43102;52.014;-0.680;2023-01-29T02:59:01;102073;;;6.36;78.77
57250;BME280;43102;52.014;-0.680;2023-01-29T03:01:03;102060;;;6.36;78.67
57250;BME280;43102;52.014;-0.680;2023-01-29T03:02:03;102060;;;6.36;78.67
57250;BME280;43102;52.014;-0.680;2023-01-29T03:04:02;102060;;;6.36;78.67
57250;BME280;43102;52.014;-0.680;2023-01-29T03:05:00;102057;;;6.34;78.65
57250;BME280;43102;52.014;-0.680;2023-01-29T03:06:03;102057;;;6.34;78.65
57250;BME280;43102;52.014;-0.680;2023-01-29T03:07:02;102057;;;6.34;78.65
57250;BME280;43102;52.014;-0.680;2023-01-29T03:08:03;102057;;;6.34;78.65
57250;BME280;43102;52.014;-0.680;2023-01-29T03:09:01;102057;;;6.34;78.65
57250;BME280;43102;52.014;-0.680;2023-01-29T03:10:00;102052;;;6.33;78.58
57250;BME280;43102;52.014;-0.680;2023-01-29T03:11:00;102052;;;6.33;78.58
57250;BME280;43102;52.014;-0.680;2023-01-29T03:12:02;102052;;;6.33;78.58
57250;BME280;43102;52.014;-0.680;2023-01-29T03:13:06;102052;;;6.33;78.58
57250;BME280;43102;52.014;-0.680;2023-01-29T03:14:05;102052;;;6.33;78.58
57250;BME280;43102;52.014;-0.680;2023-01-29T03:15:02;102038;;;6.30;78.56
57250;BME280;43102;52.014;-0.680;2023-01-29T03:16:03;102038;;;6.30;78.56
57250;BME280;43102;52.014;-0.680;2023-01-29T03:17:00;102038;;;6.30;78.56
57250;BME280;43102;52.014;-0.680;2023-01-29T03:18:02;102038;;;6.30;78.56
57250;BME280;43102;52.014;-0.680;2023-01-29T03:19:05;102038;;;6.30;78.56
57250;BME280;43102;52.014;-0.680;2023-01-29T03:20:00;102035;;;6.28;78.57
57250;BME280;43102;52.014;-0.680;2023-01-29T03:21:02;102035;;;6.28;78.57
57250;BME280;43102;52.014;-0.680;2023-01-29T03:22:00;102035;;;6.28;78.57
57250;BME280;43102;52.014;-0.680;2023-01-29T03:23:02;102035;;;6.28;78.57
57250;BME280;43102;52.014;-0.680;2023-01-29T03:24:00;102035;;;6.28;78.57
57250;BME280;43102;52.014;-0.680;2023-01-29T03:25:00;102028;;;6.25;78.54
57250;BME280;43102;52.014;-0.680;2023-01-29T03:26:00;102028;;;6.25;78.54
57250;BME280;43102;52.014;-0.680;2023-01-29T03:27:01;102028;;;6.25;78.54
57250;BME280;43102;52.014;-0.680;2023-01-29T03:28:00;102028;;;6.25;78.54
57250;BME280;43102;52.014;-0.680;2023-01-29T03:29:00;102028;;;6.25;78.54
57250;BME280;43102;52.014;-0.680;2023-01-29T03:30:00;102025;;;6.23;78.59
57250;BME280;43102;52.014;-0.680;2023-01-29T03:31:02;102025;;;6.23;78.59
57250;BME280;43102;52.014;-0.680;2023-01-29T03:32:00;102025;;;6.23;78.59
57250;BME280;43102;52.014;-0.680;2023-01-29T03:33:01;102025;;;6.23;78.59
57250;BME280;43102;52.014;-0.680;2023-01-29T03:34:02;102025;;;6.23;78.59
57250;BME280;43102;52.014;-0.680;2023-01-29T03:35:00;102026;;;6.22;78.60
57250;BME280;43102;52.014;-0.680;2023-01-29T03:36:01;102026;;;6.22;78.60
57250;BME280;43102;52.014;-0.680;2023-01-29T03:37:02;102026;;;6.22;78.60
57250;BME280;43102;52.014;-0.680;2023-01-29T03:38:00;102026;;;6.22;78.60
57250;BME280;43102;52.014;-0.680;2023-01-29T03:39:00;102026;;;6.22;78.60
57250;BME280;43102;52.014;-0.680;2023-01-29T03:40:01;102021;;;6.19;78.63
57250;BME280;43102;52.014;-0.680;2023-01-29T03:44:04;102021;;;6.19;78.63
57250;BME280;43102;52.014;-0.680;2023-01-29T03:46:03;102018;;;6.17;78.60
57250;BME280;43102;52.014;-0.680;2023-01-29T03:47:06;102018;;;6.17;78.60
57250;BME280;43102;52.014;-0.680;2023-01-29T03:48:07;102018;;;6.17;78.60
57250;BME280;43102;52.014;-0.680;2023-01-29T03:49:01;102018;;;6.17;78.60
57250;BME280;43102;52.014;-0.680;2023-01-29T03:50:20;102020;;;6.19;78.51
57250;BME280;43102;52.014;-0.680;2023-01-29T03:51:18;102020;;;6.19;78.51
57250;BME280;43102;52.014;-0.680;2023-01-29T03:53:04;102020;;;6.19;78.51
57250;BME280;43102;52.014;-0.680;2023-01-29T03:54:05;102020;;;6.19;78.51
57250;BME280;43102;52.014;-0.680;2023-01-29T03:56:01;102017;;;6.17;78.43
57250;BME280;43102;52.014;-0.680;2023-01-29T03:57:02;102017;;;6.17;78.43
57250;BME280;43102;52.014;-0.680;2023-01-29T03:58:22;102017;;;6.17;78.43
57250;BME280;43102;52.014;-0.680;2023-01-29T04:01:01;102018;;;6.18;78.40
57250;BME280;43102;52.014;-0.680;2023-01-29T04:02:01;102018;;;6.18;78.40
57250;BME280;43102;52.014;-0.680;2023-01-29T04:05:01;102008;;;6.16;78.41
57250;BME280;43102;52.014;-0.680;2023-01-29T04:06:03;102008;;;6.16;78.41
57250;BME280;43102;52.014;-0.680;2023-01-29T04:07:02;102008;;;6.16;78.41
57250;BME280;43102;52.014;-0.680;2023-01-29T04:08:01;102008;;;6.16;78.41
57250;BME280;43102;52.014;-0.680;2023-01-29T04:09:05;102008;;;6.16;78.41
57250;BME280;43102;52.014;-0.680;2023-01-29T04:10:16;102008;;;6.12;78.35
57250;BME280;43102;52.014;-0.680;2023-01-29T04:11:01;102008;;;6.12;78.35
57250;BME280;43102;52.014;-0.680;2023-01-29T04:12:02;102008;;;6.12;78.35
57250;BME280;43102;52.014;-0.680;2023-01-29T04:13:03;102008;;;6.12;78.35
57250;BME280;43102;52.014;-0.680;2023-01-29T04:14:00;102008;;;6.12;78.35
57250;BME280;43102;52.014;-0.680;2023-01-29T04:15:00;102013;;;6.12;78.33
57250;BME280;43102;52.014;-0.680;2023-01-29T04:16:00;102013;;;6.12;78.33
57250;BME280;43102;52.014;-0.680;2023-01-29T04:17:00;102013;;;6.12;78.33
57250;BME280;43102;52.014;-0.680;2023-01-29T04:18:00;102013;;;6.12;78.33
57250;BME280;43102;52.014;-0.680;2023-01-29T04:19:00;102013;;;6.12;78.33
57250;BME280;43102;52.014;-0.680;2023-01-29T04:20:00;101996;;;6.08;78.00
57250;BME280;43102;52.014;-0.680;2023-01-29T04:21:00;101996;;;6.08;78.00
57250;BME280;43102;52.014;-0.680;2023-01-29T04:22:05;101996;;;6.08;78.00
57250;BME280;43102;52.014;-0.680;2023-01-29T04:23:00;101996;;;6.08;78.00
57250;BME280;43102;52.014;-0.680;2023-01-29T04:24:00;101996;;;6.08;78.00
57250;BME280;43102;52.014;-0.680;2023-01-29T04:25:01;101993;;;6.06;78.12
57250;BME280;43102;52.014;-0.680;2023-01-29T04:27:05;101993;;;6.06;78.12
57250;BME280;43102;52.014;-0.680;2023-01-29T04:31:03;101991;;;6.06;78.02
57250;BME280;43102;52.014;-0.680;2023-01-29T04:32:17;101991;;;6.06;78.02
57250;BME280;43102;52.014;-0.680;2023-01-29T04:35:05;101985;;;6.03;77.88
57250;BME280;43102;52.014;-0.680;2023-01-29T04:38:11;101985;;;6.03;77.88
57250;BME280;43102;52.014;-0.680;2023-01-29T04:43:02;101978;;;6.02;77.77
57250;BME280;43102;52.014;-0.680;2023-01-29T04:44:09;101978;;;6.02;77.77
57250;BME280;43102;52.014;-0.680;2023-01-29T04:46:17;101973;;;5.98;77.81
57250;BME280;43102;52.014;-0.680;2023-01-29T04:50:11;101953;;;5.94;77.75
57250;BME280;43102;52.014;-0.680;2023-01-29T04:52:03;101953;;;5.94;77.75
57250;BME280;43102;52.014;-0.680;2023-01-29T04:53:17;101953;;;5.94;77.75
57250;BME280;43102;52.014;-0.680;2023-01-29T04:55:05;101952;;;5.93;77.63
57250;BME280;43102;52.014;-0.680;2023-01-29T04:56:04;101952;;;5.93;77.63
57250;BME280;43102;52.014;-0.680;2023-01-29T04:57:09;101952;;;5.93;77.63
57250;BME280;43102;52.014;-0.680;2023-01-29T04:58:10;101952;;;5.93;77.63
57250;BME280;43102;52.014;-0.680;2023-01-29T04:59:03;101952;;;5.93;77.63
57250;BME280;43102;52.014;-0.680;2023-01-29T05:00:05;101954;;;5.91;77.50
57250;BME280;43102;52.014;-0.680;2023-01-29T05:01:00;101954;;;5.91;77.50
57250;BME280;43102;52.014;-0.680;2023-01-29T05:02:00;101954;;;5.91;77.50
57250;BME280;43102;52.014;-0.680;2023-01-29T05:03:00;101954;;;5.91;77.50
57250;BME280;43102;52.014;-0.680;2023-01-29T05:04:01;101954;;;5.91;77.50
57250;BME280;43102;52.014;-0.680;2023-01-29T05:05:00;101958;;;5.93;77.56
57250;BME280;43102;52.014;-0.680;2023-01-29T05:06:00;101958;;;5.93;77.56
57250;BME280;43102;52.014;-0.680;2023-01-29T05:07:01;101958;;;5.93;77.56
57250;BME280;43102;52.014;-0.680;2023-01-29T05:08:00;101958;;;5.93;77.56
57250;BME280;43102;52.014;-0.680;2023-01-29T05:09:00;101958;;;5.93;77.56
57250;BME280;43102;52.014;-0.680;2023-01-29T05:10:00;101950;;;5.93;77.63
57250;BME280;43102;52.014;-0.680;2023-01-29T05:11:00;101950;;;5.93;77.63
57250;BME280;43102;52.014;-0.680;2023-01-29T05:12:00;101950;;;5.93;77.63
57250;BME280;43102;52.014;-0.680;2023-01-29T05:13:00;101950;;;5.93;77.63
57250;BME280;43102;52.014;-0.680;2023-01-29T05:14:01;101950;;;5.93;77.63
57250;BME280;43102;52.014;-0.680;2023-01-29T05:15:00;101940;;;5.91;77.72
57250;BME280;43102;52.014;-0.680;2023-01-29T05:17:01;101940;;;5.91;77.72
57250;BME280;43102;52.014;-0.680;2023-01-29T05:18:00;101940;;;5.91;77.72
57250;BME280;43102;52.014;-0.680;2023-01-29T05:19:00;101940;;;5.91;77.72
57250;BME280;43102;52.014;-0.680;2023-01-29T05:20:00;101934;;;5.91;77.70
57250;BME280;43102;52.014;-0.680;2023-01-29T05:21:01;101934;;;5.91;77.70
57250;BME280;43102;52.014;-0.680;2023-01-29T05:22:00;101934;;;5.91;77.70
57250;BME280;43102;52.014;-0.680;2023-01-29T05:23:00;101934;;;5.91;77.70
57250;BME280;43102;52.014;-0.680;2023-01-29T05:24:05;101934;;;5.91;77.70
57250;BME280;43102;52.014;-0.680;2023-01-29T05:25:00;101924;;;5.84;77.74
57250;BME280;43102;52.014;-0.680;2023-01-29T05:26:00;101924;;;5.84;77.74
57250;BME280;43102;52.014;-0.680;2023-01-29T05:27:00;101924;;;5.84;77.74
57250;BME280;43102;52.014;-0.680;2023-01-29T05:28:00;101924;;;5.84;77.74
57250;BME280;43102;52.014;-0.680;2023-01-29T05:29:00;101924;;;5.84;77.74
57250;BME280;43102;52.014;-0.680;2023-01-29T05:30:00;101917;;;5.83;77.87
57250;BME280;43102;52.014;-0.680;2023-01-29T05:31:00;101917;;;5.83;77.87
57250;BME280;43102;52.014;-0.680;2023-01-29T05:32:00;101917;;;5.83;77.87
57250;BME280;43102;52.014;-0.680;2023-01-29T05:33:00;101917;;;5.83;77.87
57250;BME280;43102;52.014;-0.680;2023-01-29T05:34:00;101917;;;5.83;77.87
57250;BME280;43102;52.014;-0.680;2023-01-29T05:35:00;101915;;;5.82;77.76
57250;BME280;43102;52.014;-0.680;2023-01-29T05:36:00;101915;;;5.82;77.76
57250;BME280;43102;52.014;-0.680;2023-01-29T05:37:00;101915;;;5.82;77.76
57250;BME280;43102;52.014;-0.680;2023-01-29T05:38:00;101915;;;5.82;77.76
57250;BME280;43102;52.014;-0.680;2023-01-29T05:39:00;101915;;;5.82;77.76
57250;BME280;43102;52.014;-0.680;2023-01-29T05:40:00;101904;;;5.81;77.71
57250;BME280;43102;52.014;-0.680;2023-01-29T05:41:00;101904;;;5.81;77.71
57250;BME280;43102;52.014;-0.680;2023-01-29T05:42:00;101904;;;5.81;77.71
57250;BME280;43102;52.014;-0.680;2023-01-29T05:43:00;101904;;;5.81;77.71
57250;BME280;43102;52.014;-0.680;2023-01-29T05:44:00;101904;;;5.81;77.71
57250;BME280;43102;52.014;-0.680;2023-01-29T05:45:00;101907;;;5.83;77.64
57250;BME280;43102;52.014;-0.680;2023-01-29T05:46:00;101907;;;5.83;77.64
57250;BME280;43102;52.014;-0.680;2023-01-29T05:47:00;101907;;;5.83;77.64
57250;BME280;43102;52.014;-0.680;2023-01-29T05:48:00;101907;;;5.83;77.64
57250;BME280;43102;52.014;-0.680;2023-01-29T05:49:00;101907;;;5.83;77.64
57250;BME280;43102;52.014;-0.680;2023-01-29T05:50:00;101911;;;5.80;77.58
57250;BME280;43102;52.014;-0.680;2023-01-29T05:51:00;101911;;;5.80;77.58
57250;BME280;43102;52.014;-0.680;2023-01-29T05:52:00;101911;;;5.80;77.58
57250;BME280;43102;52.014;-0.680;2023-01-29T05:53:00;101911;;;5.80;77.58
57250;BME280;43102;52.014;-0.680;2023-01-29T05:54:00;101911;;;5.80;77.58
57250;BME280;43102;52.014;-0.680;2023-01-29T05:55:00;101898;;;5.76;77.81
57250;BME280;43102;52.014;-0.680;2023-01-29T05:56:00;101898;;;5.76;77.81
57250;BME280;43102;52.014;-0.680;2023-01-29T05:57:00;101898;;;5.76;77.81
57250;BME280;43102;52.014;-0.680;2023-01-29T05:58:00;101898;;;5.76;77.81
57250;BME280;43102;52.014;-0.680;2023-01-29T05:59:00;101898;;;5.76;77.81
57250;BME280;43102;52.014;-0.680;2023-01-29T06:00:00;101891;;;5.76;77.89
57250;BME280;43102;52.014;-0.680;2023-01-29T06:01:17;101891;;;5.76;77.89
57250;BME280;43102;52.014;-0.680;2023-01-29T06:02:00;101891;;;5.76;77.89
57250;BME280;43102;52.014;-0.680;2023-01-29T06:03:00;101891;;;5.76;77.89
57250;BME280;43102;52.014;-0.680;2023-01-29T06:04:00;101891;;;5.76;77.89
57250;BME280;43102;52.014;-0.680;2023-01-29T06:05:00;101878;;;5.72;78.02
57250;BME280;43102;52.014;-0.680;2023-01-29T06:06:00;101878;;;5.72;78.02
57250;BME280;43102;52.014;-0.680;2023-01-29T06:07:00;101878;;;5.72;78.02
57250;BME280;43102;52.014;-0.680;2023-01-29T06:08:00;101878;;;5.72;78.02
57250;BME280;43102;52.014;-0.680;2023-01-29T06:09:00;101878;;;5.72;78.02
57250;BME280;43102;52.014;-0.680;2023-01-29T06:10:00;101871;;;5.73;77.98
57250;BME280;43102;52.014;-0.680;2023-01-29T06:11:00;101871;;;5.73;77.98
57250;BME280;43102;52.014;-0.680;2023-01-29T06:12:00;101871;;;5.73;77.98
57250;BME280;43102;52.014;-0.680;2023-01-29T06:13:00;101871;;;5.73;77.98
57250;BME280;43102;52.014;-0.680;2023-01-29T06:14:00;101871;;;5.73;77.98
57250;BME280;43102;52.014;-0.680;2023-01-29T06:15:00;101870;;;5.71;78.02
57250;BME280;43102;52.014;-0.680;2023-01-29T06:16:02;101870;;;5.71;78.02
57250;BME280;43102;52.014;-0.680;2023-01-29T06:17:00;101870;;;5.71;78.02